createdAt,value
2022-08-07T00:02:44.432Z,11.60
2022-08-07T00:07:50.551Z,11.70
2022-08-07T00:12:57.975Z,11.40
2022-08-07T00:18:02.810Z,11.20
2022-08-07T00:23:08.528Z,11.50
2022-08-07T00:28:15.529Z,11.20
2022-08-07T00:33:22.353Z,10.80
2022-08-07T00:38:31.647Z,11.00
2022-08-07T00:43:58.926Z,10.90
2022-08-07T00:48:42.338Z,10.90
2022-08-07T00:53:50.541Z,11.10
2022-08-07T00:58:56.881Z,11.30
2022-08-07T01:04:03.389Z,11.20
2022-08-07T01:09:11.891Z,10.70
2022-08-07T01:14:28.543Z,11.00
2022-08-07T01:19:32.473Z,11.00
2022-08-07T01:24:38.957Z,10.80
2022-08-07T01:29:45.415Z,10.80
2022-08-07T01:34:52.574Z,10.60
2022-08-07T01:39:59.642Z,10.30
2022-08-07T01:45:15.926Z,10.30
2022-08-07T01:50:16.266Z,9.80
2022-08-07T01:55:33.456Z,9.70
2022-08-07T02:00:45.458Z,10.10
2022-08-07T02:05:59.288Z,9.60
2022-08-07T02:11:03.496Z,9.70
2022-08-07T02:16:12.058Z,9.70
2022-08-07T02:21:19.457Z,9.30
2022-08-07T02:26:32.904Z,9.40
2022-08-07T02:31:33.035Z,9.60
2022-08-07T02:36:38.968Z,9.90
2022-08-07T02:41:54.393Z,9.90
2022-08-07T02:46:57.278Z,10.00
2022-08-07T02:52:05.555Z,9.60
2022-08-07T02:57:14.139Z,9.80
2022-08-07T03:02:19.967Z,9.80
2022-08-07T03:07:58.880Z,9.90
2022-08-07T03:12:36.627Z,9.30
2022-08-07T03:17:53.932Z,9.40
2022-08-07T03:22:53.555Z,9.50
2022-08-07T03:28:36.865Z,9.50
2022-08-07T03:33:10.065Z,9.50
2022-08-07T03:38:17.095Z,9.50
2022-08-07T03:43:26.607Z,9.30
2022-08-07T03:48:33.090Z,9.30
2022-08-07T03:54:05.742Z,9.40
2022-08-07T03:59:08.571Z,9.30
2022-08-07T04:03:55.617Z,9.60
2022-08-07T04:09:02.410Z,9.60
2022-08-07T04:14:10.581Z,9.80
2022-08-07T04:19:16.953Z,9.80
2022-08-07T04:24:30.724Z,10.00
2022-08-07T04:29:48.862Z,10.20
2022-08-07T04:34:39.535Z,9.80
2022-08-07T04:39:45.010Z,10.30
2022-08-07T04:45:02.635Z,10.40
2022-08-07T04:50:13.353Z,10.80
2022-08-07T04:58:11.507Z,11.10
2022-08-07T05:00:53.020Z,11.50
2022-08-07T05:06:19.867Z,11.80
2022-08-07T05:11:58.610Z,12.30
2022-08-07T05:16:52.621Z,12.50
2022-08-07T05:22:01.780Z,12.80
2022-08-07T05:27:14.544Z,13.20
2022-08-07T05:32:19.422Z,13.30
2022-08-07T05:37:25.716Z,13.60
2022-08-07T05:42:34.227Z,13.80
2022-08-07T05:48:01.676Z,14.30
2022-08-07T05:52:46.607Z,14.30
2022-08-07T05:57:52.697Z,14.70
2022-08-07T06:03:01.807Z,14.80
2022-08-07T06:08:29.486Z,15.20
2022-08-07T06:13:16.918Z,15.70
2022-08-07T06:18:22.388Z,16.10
2022-08-07T06:24:37.615Z,16.00
2022-08-07T06:28:40.261Z,16.30
2022-08-07T06:33:47.567Z,16.70
2022-08-07T06:40:12.554Z,16.70
2022-08-07T06:44:10.889Z,17.20
2022-08-07T06:49:11.527Z,17.30
2022-08-07T06:55:33.996Z,17.80
2022-08-07T07:00:15.096Z,18.10
2022-08-07T07:04:55.195Z,18.30
2022-08-07T07:09:52.234Z,18.70
2022-08-07T07:15:03.277Z,19.30
2022-08-07T07:20:12.914Z,19.40
2022-08-07T07:26:33.921Z,19.70
2022-08-07T07:30:38.113Z,19.40
2022-08-07T07:35:50.614Z,19.70
2022-08-07T07:40:47.630Z,20.20
2022-08-07T07:46:42.573Z,20.20
2022-08-07T07:51:04.638Z,19.60
2022-08-07T07:56:13.610Z,20.40
2022-08-07T08:02:01.572Z,20.60
2022-08-07T08:06:29.071Z,20.80
2022-08-07T08:11:47.352Z,20.60
2022-08-07T08:16:49.406Z,21.00
2022-08-07T08:22:12.549Z,21.50
2022-08-07T08:27:20.252Z,21.80
2022-08-07T08:32:38.562Z,21.40
2022-08-07T08:38:01.604Z,19.90
2022-08-07T08:42:51.728Z,20.30
2022-08-07T08:48:01.171Z,20.90
2022-08-07T08:53:19.406Z,21.20
2022-08-07T08:58:59.181Z,21.60
2022-08-07T09:04:26.030Z,21.40
2022-08-07T09:09:56.679Z,21.90
2022-08-07T09:16:23.252Z,21.40
2022-08-07T09:20:54.537Z,21.70
2022-08-07T09:25:55.748Z,21.80
2022-08-07T09:31:19.732Z,22.20
2022-08-07T09:36:42.983Z,22.50
2022-08-07T09:42:04.079Z,21.40
2022-08-07T09:47:50.388Z,21.10
2022-08-07T09:52:34.595Z,20.60
2022-08-07T09:57:59.069Z,21.00
2022-08-07T10:04:03.561Z,20.60
2022-08-07T10:08:45.575Z,21.40
2022-08-07T10:14:04.705Z,22.50
2022-08-07T10:19:30.022Z,21.70
2022-08-07T10:24:53.650Z,22.00
2022-08-07T10:30:14.797Z,21.80
2022-08-07T10:35:56.397Z,21.90
2022-08-07T10:41:09.613Z,21.70
2022-08-07T10:46:20.312Z,20.20
2022-08-07T10:51:57.759Z,19.70
2022-08-07T10:56:59.933Z,19.50
2022-08-07T11:02:34.300Z,20.70
2022-08-07T11:08:02.961Z,21.30
2022-08-07T11:14:45.487Z,21.90
2022-08-07T11:18:27.513Z,22.20
2022-08-07T11:23:57.459Z,22.00
2022-08-07T11:29:42.053Z,22.80
2022-08-07T11:34:56.417Z,22.70
2022-08-07T11:40:19.305Z,22.30
2022-08-07T11:45:50.030Z,20.90
2022-08-07T11:51:09.148Z,21.60
2022-08-07T11:56:26.885Z,22.10
2022-08-07T12:01:59.217Z,22.70
2022-08-07T12:07:01.038Z,23.00
2022-08-07T12:12:11.377Z,22.20
2022-08-07T12:17:20.465Z,23.40
2022-08-07T12:22:56.199Z,21.90
2022-08-07T12:28:04.101Z,22.50
2022-08-07T12:33:09.272Z,22.60
2022-08-07T12:38:29.406Z,22.90
2022-08-07T12:44:01.966Z,22.30
2022-08-07T12:48:51.972Z,22.40
2022-08-07T12:54:37.300Z,21.70
2022-08-07T12:59:20.509Z,22.30
2022-08-07T13:04:38.415Z,22.40
2022-08-07T13:10:39.470Z,23.20
2022-08-07T13:15:45.235Z,23.60
2022-08-07T13:21:09.591Z,24.20
2022-08-07T13:26:33.447Z,22.80
2022-08-07T13:31:57.672Z,22.60
2022-08-07T13:37:04.298Z,22.40
2022-08-07T13:42:14.697Z,22.70
2022-08-07T13:47:25.546Z,22.50
2022-08-07T13:52:36.465Z,23.50
2022-08-07T13:57:59.292Z,22.00
2022-08-07T14:02:54.435Z,23.00
2022-08-07T14:08:01.531Z,22.40
2022-08-07T14:13:08.745Z,21.90
2022-08-07T14:18:27.805Z,21.90
2022-08-07T14:23:59.148Z,22.80
2022-08-07T14:28:57.148Z,22.00
2022-08-07T14:33:47.928Z,22.20
2022-08-07T14:38:54.302Z,22.00
2022-08-07T14:44:11.608Z,22.10
2022-08-07T14:49:17.248Z,22.50
2022-08-07T14:54:32.884Z,22.70
2022-08-07T15:00:04.695Z,22.80
2022-08-07T15:04:41.970Z,21.80
2022-08-07T15:09:58.008Z,21.60
2022-08-07T15:15:21.246Z,21.80
2022-08-07T15:20:33.339Z,22.20
2022-08-07T15:25:36.795Z,22.60
2022-08-07T15:31:05.413Z,22.30
2022-08-07T15:36:01.582Z,22.10
2022-08-07T15:41:22.849Z,21.70
2022-08-07T15:46:08.260Z,21.60
2022-08-07T15:51:11.938Z,21.50
2022-08-07T15:56:18.398Z,21.30
2022-08-07T16:01:38.972Z,20.90
2022-08-07T16:06:40.661Z,21.30
2022-08-07T16:12:05.740Z,21.20
2022-08-07T16:18:02.639Z,20.80
2022-08-07T16:23:13.618Z,21.10
2022-08-07T16:30:09.209Z,20.70
2022-08-07T16:34:01.770Z,20.60
2022-08-07T16:39:16.795Z,20.50
2022-08-07T16:45:03.846Z,20.10
2022-08-07T16:50:27.053Z,20.00
2022-08-07T16:55:20.501Z,20.00
2022-08-07T17:00:34.958Z,20.20
2022-08-07T17:06:19.380Z,20.10
2022-08-07T17:10:57.319Z,19.80
2022-08-07T17:16:25.189Z,19.90
2022-08-07T17:21:51.192Z,19.90
2022-08-07T17:27:03.632Z,19.70
2022-08-07T17:32:35.223Z,19.50
2022-08-07T17:38:08.423Z,19.50
2022-08-07T17:43:17.793Z,19.40
2022-08-07T17:48:30.737Z,19.30
2022-08-07T17:54:00.208Z,18.90
2022-08-07T17:58:48.675Z,18.90
2022-08-07T18:04:16.734Z,18.70
2022-08-07T18:10:04.684Z,18.70
2022-08-07T18:14:49.172Z,18.80
2022-08-07T18:21:04.454Z,18.70
2022-08-07T18:25:23.902Z,18.40
2022-08-07T18:30:36.530Z,18.30
2022-08-07T18:35:51.740Z,18.10
2022-08-07T18:41:20.734Z,17.90
2022-08-07T18:46:28.740Z,17.50
2022-08-07T18:52:35.450Z,16.80
2022-08-07T18:57:30.830Z,17.00
2022-08-07T19:02:42.674Z,16.30
2022-08-07T19:08:08.830Z,16.00
2022-08-07T19:13:42.465Z,15.80
2022-08-07T19:18:57.703Z,15.60
2022-08-07T19:24:08.356Z,15.60
2022-08-07T19:31:03.913Z,15.10
2022-08-07T19:34:34.398Z,14.60
2022-08-07T19:39:56.275Z,14.60
2022-08-07T19:44:45.171Z,14.40
2022-08-07T19:49:58.372Z,14.90
2022-08-07T19:55:02.669Z,14.00
2022-08-07T20:00:28.307Z,13.60
2022-08-07T20:05:29.303Z,13.30
2022-08-07T20:10:55.250Z,13.20
2022-08-07T20:15:49.071Z,13.40
2022-08-07T20:20:58.488Z,13.40
2022-08-07T20:26:10.420Z,13.50
2022-08-07T20:31:21.899Z,13.10
2022-08-07T20:36:29.851Z,13.20
2022-08-07T20:41:40.410Z,13.10
2022-08-07T20:46:46.642Z,12.80
2022-08-07T20:51:52.044Z,12.90
2022-08-07T20:57:01.020Z,12.60
2022-08-07T21:07:42.038Z,12.90
2022-08-07T21:12:50.738Z,12.60
2022-08-07T21:18:25.747Z,13.00
2022-08-07T21:23:15.280Z,12.90
2022-08-07T21:28:49.062Z,13.10
2022-08-07T21:33:41.677Z,13.10
2022-08-07T21:38:56.162Z,13.30
2022-08-07T21:44:14.577Z,13.10
2022-08-07T21:50:01.251Z,13.00
2022-08-07T21:54:52.870Z,12.90
2022-08-07T22:00:05.691Z,12.80
2022-08-07T22:05:43.823Z,12.80
2022-08-07T22:10:28.228Z,12.70
2022-08-07T22:16:44.596Z,12.60
2022-08-07T22:20:57.164Z,12.10
2022-08-07T22:26:22.888Z,12.00
2022-08-07T22:32:00.419Z,12.00
2022-08-07T22:37:12.428Z,12.10
2022-08-07T22:42:25.641Z,11.60
2022-08-07T22:47:37.778Z,12.00
2022-08-07T22:52:50.187Z,12.00
2022-08-07T22:58:17.823Z,12.10
2022-08-07T23:03:58.457Z,11.70
2022-08-07T23:10:04.562Z,11.50
2022-08-07T23:14:32.976Z,11.40
2022-08-07T23:20:14.691Z,10.80
2022-08-07T23:25:42.088Z,11.30
2022-08-07T23:31:11.250Z,11.30
2022-08-07T23:36:22.744Z,11.10
2022-08-07T23:42:01.717Z,11.10
2022-08-07T23:47:05.119Z,11.00
2022-08-07T23:53:00.969Z,11.30
2022-08-07T23:57:45.549Z,11.20
